sensor_id;sensor_type;location;lat;lon;timestamp;P1;durP1;ratioP1;P2;durP2;ratioP2
77722;SDS011;67811;42.656;23.394;2024-02-28T00:00:05;16.98;;;9.02;;
77722;SDS011;67811;42.656;23.394;2024-02-28T00:04:11;15.48;;;8.52;;
77722;SDS011;67811;42.656;23.394;2024-02-28T00:08:17;16.63;;;8.27;;
77722;SDS011;67811;42.656;23.394;2024-02-28T00:12:22;14.13;;;8.10;;
77722;SDS011;67811;42.656;23.394;2024-02-28T00:16:27;16.73;;;9.10;;
77722;SDS011;67811;42.656;23.394;2024-02-28T00:20:33;17.80;;;9.02;;
77722;SDS011;67811;42.656;23.394;2024-02-28T00:24:38;15.47;;;7.33;;
77722;SDS011;67811;42.656;23.394;2024-02-28T00:28:43;8.82;;;5.95;;
77722;SDS011;67811;42.656;23.394;2024-02-28T00:32:49;19.40;;;9.60;;
77722;SDS011;67811;42.656;23.394;2024-02-28T00:36:54;17.65;;;8.93;;
77722;SDS011;67811;42.656;23.394;2024-02-28T00:40:59;18.90;;;9.52;;
77722;SDS011;67811;42.656;23.394;2024-02-28T00:45:04;11.95;;;6.97;;
77722;SDS011;67811;42.656;23.394;2024-02-28T00:49:10;18.88;;;8.27;;
77722;SDS011;67811;42.656;23.394;2024-02-28T00:53:15;16.35;;;8.68;;
77722;SDS011;67811;42.656;23.394;2024-02-28T00:57:20;18.87;;;10.67;;
77722;SDS011;67811;42.656;23.394;2024-02-28T01:01:26;19.67;;;10.10;;
77722;SDS011;67811;42.656;23.394;2024-02-28T01:05:31;15.57;;;9.23;;
77722;SDS011;67811;42.656;23.394;2024-02-28T01:09:36;18.92;;;9.98;;
77722;SDS011;67811;42.656;23.394;2024-02-28T01:13:41;19.30;;;10.17;;
77722;SDS011;67811;42.656;23.394;2024-02-28T01:17:47;19.67;;;10.50;;
77722;SDS011;67811;42.656;23.394;2024-02-28T01:21:52;18.48;;;10.07;;
77722;SDS011;67811;42.656;23.394;2024-02-28T01:25:57;19.23;;;8.87;;
77722;SDS011;67811;42.656;23.394;2024-02-28T01:30:02;14.77;;;8.40;;
77722;SDS011;67811;42.656;23.394;2024-02-28T01:34:08;17.40;;;8.80;;
77722;SDS011;67811;42.656;23.394;2024-02-28T01:38:13;19.33;;;10.60;;
77722;SDS011;67811;42.656;23.394;2024-02-28T01:42:18;15.20;;;8.30;;
77722;SDS011;67811;42.656;23.394;2024-02-28T01:46:25;15.45;;;9.00;;
77722;SDS011;67811;42.656;23.394;2024-02-28T01:50:32;16.95;;;8.57;;
77722;SDS011;67811;42.656;23.394;2024-02-28T01:54:37;16.75;;;9.10;;
77722;SDS011;67811;42.656;23.394;2024-02-28T01:58:44;19.55;;;9.93;;
77722;SDS011;67811;42.656;23.394;2024-02-28T02:02:51;17.92;;;9.50;;
77722;SDS011;67811;42.656;23.394;2024-02-28T02:06:56;22.17;;;9.60;;
77722;SDS011;67811;42.656;23.394;2024-02-28T02:11:01;22.57;;;10.60;;
77722;SDS011;67811;42.656;23.394;2024-02-28T02:15:07;18.20;;;9.80;;
77722;SDS011;67811;42.656;23.394;2024-02-28T02:19:12;20.27;;;10.40;;
77722;SDS011;67811;42.656;23.394;2024-02-28T02:23:18;20.93;;;9.90;;
77722;SDS011;67811;42.656;23.394;2024-02-28T02:27:24;19.85;;;9.88;;
77722;SDS011;67811;42.656;23.394;2024-02-28T02:31:29;19.75;;;10.35;;
77722;SDS011;67811;42.656;23.394;2024-02-28T02:35:34;20.15;;;10.80;;
77722;SDS011;67811;42.656;23.394;2024-02-28T02:39:40;17.87;;;9.70;;
77722;SDS011;67811;42.656;23.394;2024-02-28T02:43:45;18.83;;;9.33;;
77722;SDS011;67811;42.656;23.394;2024-02-28T02:47:50;24.67;;;10.10;;
77722;SDS011;67811;42.656;23.394;2024-02-28T02:51:55;23.23;;;10.40;;
77722;SDS011;67811;42.656;23.394;2024-02-28T02:56:03;19.95;;;10.40;;
77722;SDS011;67811;42.656;23.394;2024-02-28T03:00:10;17.23;;;9.02;;
77722;SDS011;67811;42.656;23.394;2024-02-28T03:04:15;17.35;;;9.93;;
77722;SDS011;67811;42.656;23.394;2024-02-28T03:08:21;20.03;;;10.90;;
77722;SDS011;67811;42.656;23.394;2024-02-28T03:12:26;21.77;;;9.60;;
77722;SDS011;67811;42.656;23.394;2024-02-28T03:16:31;18.73;;;9.60;;
77722;SDS011;67811;42.656;23.394;2024-02-28T03:20:37;20.67;;;11.23;;
77722;SDS011;67811;42.656;23.394;2024-02-28T03:24:42;23.45;;;12.20;;
77722;SDS011;67811;42.656;23.394;2024-02-28T03:28:47;23.17;;;11.60;;
77722;SDS011;67811;42.656;23.394;2024-02-28T03:32:52;22.03;;;10.33;;
77722;SDS011;67811;42.656;23.394;2024-02-28T03:36:58;19.67;;;10.30;;
77722;SDS011;67811;42.656;23.394;2024-02-28T03:41:03;22.20;;;10.43;;
77722;SDS011;67811;42.656;23.394;2024-02-28T03:45:08;21.77;;;10.87;;
77722;SDS011;67811;42.656;23.394;2024-02-28T03:49:14;21.23;;;10.43;;
77722;SDS011;67811;42.656;23.394;2024-02-28T03:53:19;20.42;;;11.07;;
77722;SDS011;67811;42.656;23.394;2024-02-28T03:57:24;19.10;;;9.90;;
77722;SDS011;67811;42.656;23.394;2024-02-28T04:01:30;19.13;;;10.30;;
77722;SDS011;67811;42.656;23.394;2024-02-28T04:05:35;21.52;;;10.02;;
77722;SDS011;67811;42.656;23.394;2024-02-28T04:09:40;21.60;;;10.40;;
77722;SDS011;67811;42.656;23.394;2024-02-28T04:13:46;20.93;;;9.60;;
77722;SDS011;67811;42.656;23.394;2024-02-28T04:17:51;18.20;;;10.43;;
77722;SDS011;67811;42.656;23.394;2024-02-28T04:21:56;19.63;;;10.50;;
77722;SDS011;67811;42.656;23.394;2024-02-28T04:26:02;21.00;;;11.37;;
77722;SDS011;67811;42.656;23.394;2024-02-28T04:30:07;23.17;;;10.77;;
77722;SDS011;67811;42.656;23.394;2024-02-28T04:34:13;22.53;;;10.37;;
77722;SDS011;67811;42.656;23.394;2024-02-28T04:38:18;22.57;;;11.13;;
77722;SDS011;67811;42.656;23.394;2024-02-28T04:42:23;22.58;;;11.50;;
77722;SDS011;67811;42.656;23.394;2024-02-28T04:46:28;18.50;;;11.10;;
77722;SDS011;67811;42.656;23.394;2024-02-28T04:50:33;21.63;;;10.90;;
77722;SDS011;67811;42.656;23.394;2024-02-28T04:54:40;21.38;;;10.57;;
77722;SDS011;67811;42.656;23.394;2024-02-28T04:58:45;18.63;;;11.20;;
77722;SDS011;67811;42.656;23.394;2024-02-28T05:02:50;22.48;;;10.50;;
77722;SDS011;67811;42.656;23.394;2024-02-28T05:06:55;24.30;;;11.60;;
77722;SDS011;67811;42.656;23.394;2024-02-28T05:11:01;24.60;;;12.17;;
77722;SDS011;67811;42.656;23.394;2024-02-28T05:15:06;20.00;;;10.57;;
77722;SDS011;67811;42.656;23.394;2024-02-28T05:19:11;24.08;;;12.10;;
77722;SDS011;67811;42.656;23.394;2024-02-28T05:23:17;23.10;;;12.07;;
77722;SDS011;67811;42.656;23.394;2024-02-28T05:27:22;24.17;;;12.43;;
77722;SDS011;67811;42.656;23.394;2024-02-28T05:31:27;22.83;;;12.53;;
77722;SDS011;67811;42.656;23.394;2024-02-28T05:35:32;20.70;;;11.60;;
77722;SDS011;67811;42.656;23.394;2024-02-28T05:39:38;21.30;;;11.27;;
77722;SDS011;67811;42.656;23.394;2024-02-28T05:43:43;23.30;;;13.07;;
77722;SDS011;67811;42.656;23.394;2024-02-28T05:47:49;26.23;;;13.27;;
77722;SDS011;67811;42.656;23.394;2024-02-28T05:51:54;25.27;;;12.95;;
77722;SDS011;67811;42.656;23.394;2024-02-28T05:55:59;28.07;;;13.23;;
77722;SDS011;67811;42.656;23.394;2024-02-28T06:00:05;28.10;;;13.25;;
77722;SDS011;67811;42.656;23.394;2024-02-28T06:04:10;25.50;;;14.40;;
77722;SDS011;67811;42.656;23.394;2024-02-28T06:08:16;23.57;;;14.20;;
77722;SDS011;67811;42.656;23.394;2024-02-28T06:12:21;26.60;;;13.03;;
77722;SDS011;67811;42.656;23.394;2024-02-28T06:16:26;26.40;;;14.70;;
77722;SDS011;67811;42.656;23.394;2024-02-28T06:20:31;26.57;;;14.10;;
77722;SDS011;67811;42.656;23.394;2024-02-28T06:24:37;28.35;;;14.20;;
77722;SDS011;67811;42.656;23.394;2024-02-28T06:28:43;29.63;;;14.93;;
77722;SDS011;67811;42.656;23.394;2024-02-28T06:32:48;26.88;;;12.63;;
77722;SDS011;67811;42.656;23.394;2024-02-28T06:36:54;27.50;;;13.75;;
77722;SDS011;67811;42.656;23.394;2024-02-28T06:40:59;29.77;;;14.77;;
77722;SDS011;67811;42.656;23.394;2024-02-28T06:45:04;28.53;;;14.47;;
77722;SDS011;67811;42.656;23.394;2024-02-28T06:49:10;27.75;;;13.93;;
77722;SDS011;67811;42.656;23.394;2024-02-28T06:53:15;29.97;;;14.80;;
77722;SDS011;67811;42.656;23.394;2024-02-28T06:57:20;26.43;;;13.27;;
77722;SDS011;67811;42.656;23.394;2024-02-28T07:01:26;30.83;;;16.17;;
77722;SDS011;67811;42.656;23.394;2024-02-28T07:05:31;24.53;;;14.97;;
77722;SDS011;67811;42.656;23.394;2024-02-28T07:09:37;29.80;;;14.93;;
77722;SDS011;67811;42.656;23.394;2024-02-28T07:13:43;26.05;;;14.10;;
77722;SDS011;67811;42.656;23.394;2024-02-28T07:17:48;29.63;;;13.70;;
77722;SDS011;67811;42.656;23.394;2024-02-28T07:21:53;25.63;;;13.33;;
77722;SDS011;67811;42.656;23.394;2024-02-28T07:25:59;28.02;;;15.38;;
77722;SDS011;67811;42.656;23.394;2024-02-28T07:30:04;25.40;;;15.00;;
77722;SDS011;67811;42.656;23.394;2024-02-28T07:34:10;23.83;;;13.85;;
77722;SDS011;67811;42.656;23.394;2024-02-28T07:38:15;27.20;;;14.80;;
77722;SDS011;67811;42.656;23.394;2024-02-28T07:42:20;30.73;;;15.87;;
77722;SDS011;67811;42.656;23.394;2024-02-28T07:46:26;28.37;;;16.57;;
77722;SDS011;67811;42.656;23.394;2024-02-28T07:50:31;26.65;;;15.82;;
77722;SDS011;67811;42.656;23.394;2024-02-28T07:54:36;23.50;;;13.97;;
77722;SDS011;67811;42.656;23.394;2024-02-28T07:58:41;32.70;;;16.17;;
77722;SDS011;67811;42.656;23.394;2024-02-28T08:02:47;29.63;;;14.38;;
77722;SDS011;67811;42.656;23.394;2024-02-28T08:06:52;26.03;;;14.80;;
77722;SDS011;67811;42.656;23.394;2024-02-28T08:10:57;28.38;;;14.23;;
77722;SDS011;67811;42.656;23.394;2024-02-28T08:15:03;24.77;;;14.10;;
77722;SDS011;67811;42.656;23.394;2024-02-28T08:19:09;28.83;;;14.50;;
77722;SDS011;67811;42.656;23.394;2024-02-28T08:23:14;24.70;;;12.77;;
77722;SDS011;67811;42.656;23.394;2024-02-28T08:27:19;22.77;;;13.13;;
77722;SDS011;67811;42.656;23.394;2024-02-28T08:31:25;24.97;;;14.30;;
77722;SDS011;67811;42.656;23.394;2024-02-28T08:35:30;24.38;;;14.10;;
77722;SDS011;67811;42.656;23.394;2024-02-28T08:39:35;24.73;;;12.40;;
77722;SDS011;67811;42.656;23.394;2024-02-28T08:43:40;23.93;;;13.90;;
77722;SDS011;67811;42.656;23.394;2024-02-28T08:47:46;24.55;;;13.07;;
77722;SDS011;67811;42.656;23.394;2024-02-28T08:51:51;24.23;;;12.60;;
77722;SDS011;67811;42.656;23.394;2024-02-28T08:55:56;25.87;;;12.63;;
77722;SDS011;67811;42.656;23.394;2024-02-28T09:00:02;22.03;;;13.73;;
77722;SDS011;67811;42.656;23.394;2024-02-28T09:04:07;25.10;;;12.85;;
77722;SDS011;67811;42.656;23.394;2024-02-28T09:08:12;24.95;;;12.48;;
77722;SDS011;67811;42.656;23.394;2024-02-28T09:12:17;19.50;;;11.10;;
77722;SDS011;67811;42.656;23.394;2024-02-28T09:16:23;134.60;;;25.30;;
77722;SDS011;67811;42.656;23.394;2024-02-28T09:20:28;22.50;;;11.87;;
77722;SDS011;67811;42.656;23.394;2024-02-28T09:24:33;21.60;;;11.50;;
77722;SDS011;67811;42.656;23.394;2024-02-28T09:28:38;17.03;;;10.63;;
77722;SDS011;67811;42.656;23.394;2024-02-28T09:32:44;20.65;;;11.05;;
77722;SDS011;67811;42.656;23.394;2024-02-28T09:36:49;23.77;;;13.53;;
77722;SDS011;67811;42.656;23.394;2024-02-28T09:40:54;20.30;;;12.27;;
77722;SDS011;67811;42.656;23.394;2024-02-28T09:45:00;21.45;;;12.30;;
77722;SDS011;67811;42.656;23.394;2024-02-28T09:49:06;24.75;;;12.20;;
77722;SDS011;67811;42.656;23.394;2024-02-28T09:53:12;27.08;;;12.98;;
77722;SDS011;67811;42.656;23.394;2024-02-28T09:57:17;19.97;;;11.57;;
77722;SDS011;67811;42.656;23.394;2024-02-28T10:01:22;22.63;;;12.50;;
77722;SDS011;67811;42.656;23.394;2024-02-28T10:05:28;30.20;;;12.33;;
77722;SDS011;67811;42.656;23.394;2024-02-28T10:09:33;18.55;;;11.07;;
77722;SDS011;67811;42.656;23.394;2024-02-28T10:13:39;21.98;;;9.60;;
77722;SDS011;67811;42.656;23.394;2024-02-28T10:17:44;13.88;;;8.80;;
77722;SDS011;67811;42.656;23.394;2024-02-28T10:21:50;16.13;;;8.97;;
77722;SDS011;67811;42.656;23.394;2024-02-28T10:25:55;35.10;;;14.32;;
77722;SDS011;67811;42.656;23.394;2024-02-28T10:30:01;24.77;;;10.77;;
77722;SDS011;67811;42.656;23.394;2024-02-28T10:34:07;22.60;;;11.77;;
77722;SDS011;67811;42.656;23.394;2024-02-28T10:38:13;16.83;;;7.63;;
77722;SDS011;67811;42.656;23.394;2024-02-28T10:42:19;16.13;;;9.23;;
77722;SDS011;67811;42.656;23.394;2024-02-28T10:46:26;17.15;;;8.02;;
77722;SDS011;67811;42.656;23.394;2024-02-28T10:50:32;16.35;;;7.80;;
77722;SDS011;67811;42.656;23.394;2024-02-28T10:54:39;17.85;;;8.63;;
77722;SDS011;67811;42.656;23.394;2024-02-28T10:58:52;15.30;;;8.25;;
77722;SDS011;67811;42.656;23.394;2024-02-28T11:02:59;15.15;;;8.93;;
77722;SDS011;67811;42.656;23.394;2024-02-28T11:07:06;13.27;;;7.22;;
77722;SDS011;67811;42.656;23.394;2024-02-28T11:11:13;11.53;;;6.27;;
77722;SDS011;67811;42.656;23.394;2024-02-28T11:15:19;12.93;;;7.60;;
77722;SDS011;67811;42.656;23.394;2024-02-28T11:19:24;13.10;;;6.97;;
77722;SDS011;67811;42.656;23.394;2024-02-28T11:23:35;12.47;;;6.20;;
77722;SDS011;67811;42.656;23.394;2024-02-28T11:27:45;9.93;;;5.78;;
77722;SDS011;67811;42.656;23.394;2024-02-28T11:31:52;12.68;;;6.47;;
77722;SDS011;67811;42.656;23.394;2024-02-28T11:35:57;12.13;;;7.13;;
77722;SDS011;67811;42.656;23.394;2024-02-28T11:40:03;11.23;;;6.37;;
77722;SDS011;67811;42.656;23.394;2024-02-28T11:44:08;10.65;;;6.45;;
77722;SDS011;67811;42.656;23.394;2024-02-28T11:48:14;12.07;;;7.70;;
77722;SDS011;67811;42.656;23.394;2024-02-28T11:52:20;11.30;;;6.28;;
77722;SDS011;67811;42.656;23.394;2024-02-28T11:56:25;16.57;;;7.63;;
77722;SDS011;67811;42.656;23.394;2024-02-28T12:00:30;12.33;;;6.63;;
77722;SDS011;67811;42.656;23.394;2024-02-28T12:04:36;11.10;;;6.20;;
77722;SDS011;67811;42.656;23.394;2024-02-28T12:08:41;10.97;;;6.33;;
77722;SDS011;67811;42.656;23.394;2024-02-28T12:12:46;36.33;;;11.53;;
77722;SDS011;67811;42.656;23.394;2024-02-28T12:16:51;10.80;;;6.50;;
77722;SDS011;67811;42.656;23.394;2024-02-28T12:20:57;13.87;;;6.97;;
77722;SDS011;67811;42.656;23.394;2024-02-28T12:25:02;14.70;;;7.37;;
77722;SDS011;67811;42.656;23.394;2024-02-28T12:29:07;14.85;;;6.82;;
77722;SDS011;67811;42.656;23.394;2024-02-28T12:33:13;16.17;;;6.13;;
77722;SDS011;67811;42.656;23.394;2024-02-28T12:37:18;12.80;;;6.07;;
77722;SDS011;67811;42.656;23.394;2024-02-28T12:41:23;11.75;;;5.75;;
77722;SDS011;67811;42.656;23.394;2024-02-28T12:45:29;9.45;;;5.07;;
77722;SDS011;67811;42.656;23.394;2024-02-28T12:49:34;11.77;;;5.37;;
77722;SDS011;67811;42.656;23.394;2024-02-28T12:53:40;7.37;;;4.20;;
77722;SDS011;67811;42.656;23.394;2024-02-28T12:57:45;8.95;;;5.25;;
77722;SDS011;67811;42.656;23.394;2024-02-28T13:01:50;8.77;;;4.75;;
77722;SDS011;67811;42.656;23.394;2024-02-28T13:05:55;8.90;;;4.90;;
77722;SDS011;67811;42.656;23.394;2024-02-28T13:10:01;7.10;;;3.70;;
77722;SDS011;67811;42.656;23.394;2024-02-28T13:14:06;11.20;;;4.73;;
77722;SDS011;67811;42.656;23.394;2024-02-28T13:18:11;9.93;;;4.93;;
77722;SDS011;67811;42.656;23.394;2024-02-28T13:22:16;9.10;;;3.80;;
77722;SDS011;67811;42.656;23.394;2024-02-28T13:26:22;11.23;;;5.05;;
77722;SDS011;67811;42.656;23.394;2024-02-28T13:30:27;7.40;;;3.63;;
77722;SDS011;67811;42.656;23.394;2024-02-28T13:34:32;6.13;;;3.17;;
77722;SDS011;67811;42.656;23.394;2024-02-28T13:38:38;10.13;;;4.90;;
77722;SDS011;67811;42.656;23.394;2024-02-28T13:42:43;10.33;;;4.00;;
77722;SDS011;67811;42.656;23.394;2024-02-28T13:46:49;8.37;;;4.20;;
77722;SDS011;67811;42.656;23.394;2024-02-28T13:50:56;7.65;;;3.85;;
77722;SDS011;67811;42.656;23.394;2024-02-28T13:55:02;7.97;;;3.90;;
77722;SDS011;67811;42.656;23.394;2024-02-28T13:59:07;7.35;;;4.05;;
77722;SDS011;67811;42.656;23.394;2024-02-28T14:03:13;7.30;;;4.13;;
77722;SDS011;67811;42.656;23.394;2024-02-28T14:07:18;8.98;;;3.67;;
77722;SDS011;67811;42.656;23.394;2024-02-28T14:11:24;7.97;;;4.03;;
77722;SDS011;67811;42.656;23.394;2024-02-28T14:15:29;7.07;;;3.93;;
77722;SDS011;67811;42.656;23.394;2024-02-28T14:19:34;10.18;;;4.57;;
77722;SDS011;67811;42.656;23.394;2024-02-28T14:23:39;31.77;;;9.35;;
77722;SDS011;67811;42.656;23.394;2024-02-28T14:27:45;15.33;;;6.10;;
77722;SDS011;67811;42.656;23.394;2024-02-28T14:31:50;18.48;;;5.20;;
77722;SDS011;67811;42.656;23.394;2024-02-28T14:35:57;9.33;;;4.80;;
77722;SDS011;67811;42.656;23.394;2024-02-28T14:40:04;7.38;;;4.75;;
77722;SDS011;67811;42.656;23.394;2024-02-28T14:44:11;13.27;;;5.45;;
77722;SDS011;67811;42.656;23.394;2024-02-28T14:48:16;11.68;;;4.50;;
77722;SDS011;67811;42.656;23.394;2024-02-28T14:52:21;7.80;;;4.50;;
77722;SDS011;67811;42.656;23.394;2024-02-28T14:56:27;10.13;;;5.43;;
77722;SDS011;67811;42.656;23.394;2024-02-28T15:00:32;13.57;;;6.10;;
77722;SDS011;67811;42.656;23.394;2024-02-28T15:04:38;9.82;;;5.13;;
77722;SDS011;67811;42.656;23.394;2024-02-28T15:08:43;12.77;;;4.97;;
77722;SDS011;67811;42.656;23.394;2024-02-28T15:12:48;9.20;;;4.90;;
77722;SDS011;67811;42.656;23.394;2024-02-28T15:16:54;8.60;;;4.80;;
77722;SDS011;67811;42.656;23.394;2024-02-28T15:20:59;11.73;;;4.90;;
77722;SDS011;67811;42.656;23.394;2024-02-28T15:25:04;9.77;;;4.20;;
77722;SDS011;67811;42.656;23.394;2024-02-28T15:29:10;10.73;;;5.63;;
77722;SDS011;67811;42.656;23.394;2024-02-28T15:33:15;8.77;;;4.73;;
77722;SDS011;67811;42.656;23.394;2024-02-28T15:37:20;11.37;;;5.03;;
77722;SDS011;67811;42.656;23.394;2024-02-28T15:41:26;11.40;;;5.57;;
77722;SDS011;67811;42.656;23.394;2024-02-28T15:45:31;11.17;;;5.40;;
77722;SDS011;67811;42.656;23.394;2024-02-28T15:49:36;16.77;;;5.53;;
77722;SDS011;67811;42.656;23.394;2024-02-28T15:53:41;11.57;;;5.32;;
77722;SDS011;67811;42.656;23.394;2024-02-28T15:57:47;11.03;;;5.50;;
77722;SDS011;67811;42.656;23.394;2024-02-28T16:01:52;11.00;;;5.57;;
77722;SDS011;67811;42.656;23.394;2024-02-28T16:05:57;11.60;;;5.50;;
77722;SDS011;67811;42.656;23.394;2024-02-28T16:10:03;10.48;;;5.20;;
77722;SDS011;67811;42.656;23.394;2024-02-28T16:14:08;9.60;;;5.22;;
77722;SDS011;67811;42.656;23.394;2024-02-28T16:18:14;10.70;;;4.95;;
77722;SDS011;67811;42.656;23.394;2024-02-28T16:22:19;9.23;;;5.82;;
77722;SDS011;67811;42.656;23.394;2024-02-28T16:26:24;11.13;;;5.07;;
77722;SDS011;67811;42.656;23.394;2024-02-28T16:30:30;9.43;;;3.93;;
77722;SDS011;67811;42.656;23.394;2024-02-28T16:34:35;10.23;;;4.60;;
77722;SDS011;67811;42.656;23.394;2024-02-28T16:38:40;5.63;;;3.22;;
77722;SDS011;67811;42.656;23.394;2024-02-28T16:42:45;9.43;;;4.43;;
77722;SDS011;67811;42.656;23.394;2024-02-28T16:46:51;10.60;;;5.43;;
77722;SDS011;67811;42.656;23.394;2024-02-28T16:50:56;9.48;;;4.75;;
77722;SDS011;67811;42.656;23.394;2024-02-28T16:55:01;9.97;;;4.67;;
77722;SDS011;67811;42.656;23.394;2024-02-28T16:59:06;10.93;;;4.97;;
77722;SDS011;67811;42.656;23.394;2024-02-28T17:03:12;8.18;;;4.45;;
77722;SDS011;67811;42.656;23.394;2024-02-28T17:07:17;9.02;;;4.70;;
77722;SDS011;67811;42.656;23.394;2024-02-28T17:11:22;9.73;;;5.30;;
77722;SDS011;67811;42.656;23.394;2024-02-28T17:15:29;9.63;;;4.30;;
77722;SDS011;67811;42.656;23.394;2024-02-28T17:19:34;11.25;;;5.65;;
77722;SDS011;67811;42.656;23.394;2024-02-28T17:23:39;9.67;;;4.60;;
77722;SDS011;67811;42.656;23.394;2024-02-28T17:27:45;13.32;;;5.57;;
77722;SDS011;67811;42.656;23.394;2024-02-28T17:31:50;12.73;;;6.38;;
77722;SDS011;67811;42.656;23.394;2024-02-28T17:35:55;8.33;;;4.10;;
77722;SDS011;67811;42.656;23.394;2024-02-28T17:40:01;9.30;;;4.37;;
77722;SDS011;67811;42.656;23.394;2024-02-28T17:44:06;10.20;;;4.23;;
77722;SDS011;67811;42.656;23.394;2024-02-28T17:48:11;7.53;;;4.53;;
77722;SDS011;67811;42.656;23.394;2024-02-28T17:52:16;10.10;;;4.03;;
77722;SDS011;67811;42.656;23.394;2024-02-28T17:56:22;10.00;;;4.57;;
77722;SDS011;67811;42.656;23.394;2024-02-28T18:00:27;5.50;;;3.13;;
77722;SDS011;67811;42.656;23.394;2024-02-28T18:04:32;7.53;;;3.60;;
77722;SDS011;67811;42.656;23.394;2024-02-28T18:08:38;8.32;;;3.65;;
77722;SDS011;67811;42.656;23.394;2024-02-28T18:12:43;8.18;;;4.25;;
77722;SDS011;67811;42.656;23.394;2024-02-28T18:16:48;10.98;;;4.53;;
77722;SDS011;67811;42.656;23.394;2024-02-28T18:20:54;7.78;;;4.05;;
77722;SDS011;67811;42.656;23.394;2024-02-28T18:24:59;8.93;;;4.90;;
77722;SDS011;67811;42.656;23.394;2024-02-28T18:29:04;10.43;;;4.47;;
77722;SDS011;67811;42.656;23.394;2024-02-28T18:33:10;7.50;;;3.97;;
77722;SDS011;67811;42.656;23.394;2024-02-28T18:37:15;10.57;;;4.67;;
77722;SDS011;67811;42.656;23.394;2024-02-28T18:41:20;10.97;;;4.70;;
77722;SDS011;67811;42.656;23.394;2024-02-28T18:45:25;6.25;;;3.42;;
77722;SDS011;67811;42.656;23.394;2024-02-28T18:49:31;13.65;;;4.70;;
77722;SDS011;67811;42.656;23.394;2024-02-28T18:53:36;10.30;;;4.70;;
77722;SDS011;67811;42.656;23.394;2024-02-28T18:57:41;8.13;;;4.05;;
77722;SDS011;67811;42.656;23.394;2024-02-28T19:01:46;8.30;;;4.60;;
77722;SDS011;67811;42.656;23.394;2024-02-28T19:05:52;7.28;;;3.58;;
77722;SDS011;67811;42.656;23.394;2024-02-28T19:09:57;6.30;;;3.30;;
77722;SDS011;67811;42.656;23.394;2024-02-28T19:14:02;10.63;;;5.40;;
77722;SDS011;67811;42.656;23.394;2024-02-28T19:18:07;5.70;;;2.77;;
77722;SDS011;67811;42.656;23.394;2024-02-28T19:22:13;10.07;;;5.00;;
77722;SDS011;67811;42.656;23.394;2024-02-28T19:26:18;9.87;;;4.50;;
77722;SDS011;67811;42.656;23.394;2024-02-28T19:30:23;8.68;;;4.63;;
77722;SDS011;67811;42.656;23.394;2024-02-28T19:34:28;7.57;;;3.95;;
77722;SDS011;67811;42.656;23.394;2024-02-28T19:38:34;7.15;;;4.70;;
77722;SDS011;67811;42.656;23.394;2024-02-28T19:42:39;10.17;;;5.63;;
77722;SDS011;67811;42.656;23.394;2024-02-28T19:46:44;11.03;;;5.40;;
77722;SDS011;67811;42.656;23.394;2024-02-28T19:50:50;7.32;;;4.65;;
77722;SDS011;67811;42.656;23.394;2024-02-28T19:54:56;8.20;;;5.03;;
77722;SDS011;67811;42.656;23.394;2024-02-28T19:59:01;13.03;;;6.73;;
77722;SDS011;67811;42.656;23.394;2024-02-28T20:03:06;9.27;;;5.67;;
77722;SDS011;67811;42.656;23.394;2024-02-28T20:07:12;12.85;;;6.97;;
77722;SDS011;67811;42.656;23.394;2024-02-28T20:11:18;11.38;;;6.28;;
77722;SDS011;67811;42.656;23.394;2024-02-28T20:15:23;12.57;;;5.50;;
77722;SDS011;67811;42.656;23.394;2024-02-28T20:19:28;10.27;;;5.38;;
77722;SDS011;67811;42.656;23.394;2024-02-28T20:23:34;49.10;;;22.00;;
77722;SDS011;67811;42.656;23.394;2024-02-28T20:27:39;7.90;;;4.83;;
77722;SDS011;67811;42.656;23.394;2024-02-28T20:31:44;8.60;;;4.90;;
77722;SDS011;67811;42.656;23.394;2024-02-28T20:35:49;11.27;;;5.70;;
77722;SDS011;67811;42.656;23.394;2024-02-28T20:39:55;8.07;;;3.85;;
77722;SDS011;67811;42.656;23.394;2024-02-28T20:44:00;10.07;;;5.65;;
77722;SDS011;67811;42.656;23.394;2024-02-28T20:48:05;8.67;;;5.00;;
77722;SDS011;67811;42.656;23.394;2024-02-28T20:52:11;8.45;;;4.72;;
77722;SDS011;67811;42.656;23.394;2024-02-28T20:56:16;9.45;;;5.53;;
77722;SDS011;67811;42.656;23.394;2024-02-28T21:00:22;10.07;;;5.03;;
77722;SDS011;67811;42.656;23.394;2024-02-28T21:04:28;12.52;;;7.68;;
77722;SDS011;67811;42.656;23.394;2024-02-28T21:08:33;15.43;;;5.78;;
77722;SDS011;67811;42.656;23.394;2024-02-28T21:12:39;11.23;;;5.70;;
77722;SDS011;67811;42.656;23.394;2024-02-28T21:16:44;10.17;;;5.47;;
77722;SDS011;67811;42.656;23.394;2024-02-28T21:20:49;10.23;;;4.90;;
77722;SDS011;67811;42.656;23.394;2024-02-28T21:24:54;10.20;;;5.40;;
77722;SDS011;67811;42.656;23.394;2024-02-28T21:29:00;8.57;;;4.90;;
77722;SDS011;67811;42.656;23.394;2024-02-28T21:33:05;9.60;;;4.50;;
77722;SDS011;67811;42.656;23.394;2024-02-28T21:37:10;11.13;;;6.20;;
77722;SDS011;67811;42.656;23.394;2024-02-28T21:41:15;11.55;;;5.75;;
77722;SDS011;67811;42.656;23.394;2024-02-28T21:45:21;8.18;;;4.72;;
77722;SDS011;67811;42.656;23.394;2024-02-28T21:49:26;9.70;;;5.07;;
77722;SDS011;67811;42.656;23.394;2024-02-28T21:53:31;10.10;;;5.73;;
77722;SDS011;67811;42.656;23.394;2024-02-28T21:57:37;7.55;;;4.75;;
77722;SDS011;67811;42.656;23.394;2024-02-28T22:01:42;8.00;;;5.20;;
77722;SDS011;67811;42.656;23.394;2024-02-28T22:05:47;9.53;;;5.97;;
77722;SDS011;67811;42.656;23.394;2024-02-28T22:09:53;10.23;;;6.03;;
77722;SDS011;67811;42.656;23.394;2024-02-28T22:13:58;9.80;;;6.20;;
77722;SDS011;67811;42.656;23.394;2024-02-28T22:18:03;11.10;;;5.10;;
77722;SDS011;67811;42.656;23.394;2024-02-28T22:22:09;10.77;;;5.30;;
77722;SDS011;67811;42.656;23.394;2024-02-28T22:26:16;9.63;;;4.33;;
77722;SDS011;67811;42.656;23.394;2024-02-28T22:30:22;11.73;;;5.90;;
77722;SDS011;67811;42.656;23.394;2024-02-28T22:34:27;9.50;;;4.97;;
77722;SDS011;67811;42.656;23.394;2024-02-28T22:38:32;20.35;;;10.40;;
77722;SDS011;67811;42.656;23.394;2024-02-28T22:42:38;14.02;;;7.60;;
77722;SDS011;67811;42.656;23.394;2024-02-28T22:46:43;12.83;;;6.73;;
77722;SDS011;67811;42.656;23.394;2024-02-28T22:50:48;17.92;;;9.10;;
77722;SDS011;67811;42.656;23.394;2024-02-28T22:54:53;11.27;;;6.33;;
77722;SDS011;67811;42.656;23.394;2024-02-28T22:58:59;11.90;;;6.13;;
77722;SDS011;67811;42.656;23.394;2024-02-28T23:03:04;10.87;;;5.27;;
77722;SDS011;67811;42.656;23.394;2024-02-28T23:07:09;10.82;;;5.25;;
77722;SDS011;67811;42.656;23.394;2024-02-28T23:11:15;12.00;;;5.73;;
77722;SDS011;67811;42.656;23.394;2024-02-28T23:15:20;10.40;;;5.93;;
77722;SDS011;67811;42.656;23.394;2024-02-28T23:19:26;8.10;;;5.35;;
77722;SDS011;67811;42.656;23.394;2024-02-28T23:23:31;10.35;;;5.85;;
77722;SDS011;67811;42.656;23.394;2024-02-28T23:27:37;9.33;;;5.13;;
77722;SDS011;67811;42.656;23.394;2024-02-28T23:31:42;9.32;;;5.25;;
77722;SDS011;67811;42.656;23.394;2024-02-28T23:35:47;10.32;;;5.32;;
77722;SDS011;67811;42.656;23.394;2024-02-28T23:39:52;11.60;;;6.88;;
77722;SDS011;67811;42.656;23.394;2024-02-28T23:43:58;10.82;;;6.47;;
77722;SDS011;67811;42.656;23.394;2024-02-28T23:48:03;12.03;;;6.33;;
77722;SDS011;67811;42.656;23.394;2024-02-28T23:52:08;11.27;;;6.17;;